DAL8880 KATL-KPIT
Flight info
| Callsign | DAL8880 |
|---|---|
| Flight time | 1h 14m |
| Altitude | 41000 |
| Route | PADGT2 SMTTH Q67 HNN FEWGA7 |
| Aircraft | B752/M-SDE3FGHIM3RWXY/LB1 |
Departure
| Time | 2026-05-04 00:29 |
|---|---|
| Airport | Hartsfield Jackson Atlanta International Airport (KATL) |
Arrival
| Time | 2026-05-04 01:44 |
|---|---|
| Airport | Pittsburgh International Airport (KPIT) |
| Time | Latitude | Longitude | Altitude | Speed | Heading |
|---|---|---|---|---|---|
| 2026-05-04 00:12 | 33.64000 | -84.44190 | 1009 ft | 0 kts | 270° |
| 2026-05-04 00:18 | 33.64000 | -84.44177 | 1009 ft | 2 kts | 270° |
| 2026-05-04 00:18 | 33.64000 | -84.44158 | 1009 ft | 2 kts | 271° |
| 2026-05-04 00:18 | 33.63997 | -84.44141 | 1009 ft | 2 kts | 291° |
| 2026-05-04 00:18 | 33.63991 | -84.44125 | 1009 ft | 2 kts | 305° |
| 2026-05-04 00:19 | 33.63984 | -84.44115 | 1010 ft | 0 kts | 317° |
| 2026-05-04 00:19 | 33.63980 | -84.44111 | 1009 ft | 0 kts | 319° |
| 2026-05-04 00:21 | 33.63981 | -84.44112 | 1009 ft | 1 kts | 319° |
| 2026-05-04 00:21 | 33.63999 | -84.44114 | 1009 ft | 4 kts | 20° |
| 2026-05-04 00:22 | 33.64046 | -84.44078 | 1009 ft | 10 kts | 33° |
| 2026-05-04 00:22 | 33.64118 | -84.44057 | 1009 ft | 10 kts | 4° |
| 2026-05-04 00:22 | 33.64197 | -84.44050 | 1009 ft | 12 kts | 0° |
| 2026-05-04 00:22 | 33.64293 | -84.44052 | 1009 ft | 14 kts | 2° |
| 2026-05-04 00:23 | 33.64398 | -84.44039 | 1009 ft | 15 kts | 29° |
| 2026-05-04 00:23 | 33.64436 | -84.43916 | 1010 ft | 17 kts | 82° |
| 2026-05-04 00:23 | 33.64457 | -84.43737 | 1009 ft | 24 kts | 86° |
| 2026-05-04 00:23 | 33.64460 | -84.43543 | 1009 ft | 23 kts | 90° |
| 2026-05-04 00:24 | 33.64461 | -84.43343 | 1009 ft | 23 kts | 90° |
| 2026-05-04 00:24 | 33.64460 | -84.43156 | 1009 ft | 22 kts | 90° |
| 2026-05-04 00:24 | 33.64460 | -84.42956 | 1009 ft | 25 kts | 90° |
| 2026-05-04 00:24 | 33.64464 | -84.42752 | 1009 ft | 23 kts | 83° |
| 2026-05-04 00:25 | 33.64469 | -84.42557 | 998 ft | 23 kts | 90° |
| 2026-05-04 00:25 | 33.64469 | -84.42362 | 987 ft | 24 kts | 90° |
| 2026-05-04 00:25 | 33.64511 | -84.42178 | 987 ft | 21 kts | 59° |
| 2026-05-04 00:25 | 33.64543 | -84.42001 | 985 ft | 24 kts | 91° |
| 2026-05-04 00:26 | 33.64543 | -84.41789 | 977 ft | 25 kts | 90° |
| 2026-05-04 00:26 | 33.64543 | -84.41578 | 975 ft | 23 kts | 90° |
| 2026-05-04 00:26 | 33.64543 | -84.41386 | 982 ft | 22 kts | 90° |
| 2026-05-04 00:26 | 33.64543 | -84.41209 | 992 ft | 21 kts | 90° |
| 2026-05-04 00:27 | 33.64543 | -84.41036 | 1002 ft | 19 kts | 90° |
| 2026-05-04 00:27 | 33.64543 | -84.40874 | 1006 ft | 19 kts | 90° |
| 2026-05-04 00:27 | 33.64570 | -84.40710 | 1006 ft | 21 kts | 89° |
| 2026-05-04 00:27 | 33.64581 | -84.40588 | 1006 ft | 13 kts | 52° |
| 2026-05-04 00:28 | 33.64663 | -84.40569 | 1006 ft | 7 kts | 359° |
| 2026-05-04 00:28 | 33.64680 | -84.40602 | 1006 ft | 6 kts | 270° |
| 2026-05-04 00:28 | 33.64680 | -84.40797 | 1006 ft | 51 kts | 270° |
| 2026-05-04 00:28 | 33.64680 | -84.41505 | 985 ft | 118 kts | 270° |
| 2026-05-04 00:29 | 33.64682 | -84.42692 | 1198 ft | 155 kts | 271° |
| 2026-05-04 00:29 | 33.64753 | -84.43947 | 2047 ft | 154 kts | 278° |
| 2026-05-04 00:29 | 33.64906 | -84.45261 | 2543 ft | 173 kts | 279° |
| 2026-05-04 00:29 | 33.65123 | -84.46813 | 2896 ft | 202 kts | 288° |
| 2026-05-04 00:30 | 33.65661 | -84.48436 | 3547 ft | 217 kts | 295° |
| 2026-05-04 00:30 | 33.66288 | -84.50141 | 4179 ft | 235 kts | 295° |
| 2026-05-04 00:30 | 33.66978 | -84.52003 | 4850 ft | 254 kts | 295° |
| 2026-05-04 00:30 | 33.67717 | -84.53975 | 5678 ft | 266 kts | 295° |
| 2026-05-04 00:31 | 33.68529 | -84.55956 | 6687 ft | 269 kts | 305° |
| 2026-05-04 00:31 | 33.69888 | -84.57426 | 7714 ft | 270 kts | 334° |
| 2026-05-04 00:31 | 33.71692 | -84.57967 | 8700 ft | 275 kts | 356° |
| 2026-05-04 00:31 | 33.73597 | -84.58014 | 9751 ft | 276 kts | 357° |
| 2026-05-04 00:32 | 33.75536 | -84.58054 | 10715 ft | 281 kts | 358° |
| 2026-05-04 00:32 | 33.77518 | -84.58066 | 11654 ft | 286 kts | 358° |
| 2026-05-04 00:32 | 33.79504 | -84.58063 | 12544 ft | 292 kts | 358° |
| 2026-05-04 00:32 | 33.81559 | -84.57864 | 13100 ft | 311 kts | 10° |
| 2026-05-04 00:33 | 33.83721 | -84.57106 | 13533 ft | 333 kts | 15° |
| 2026-05-04 00:33 | 33.88289 | -84.55437 | 15103 ft | 349 kts | 14° |
| 2026-05-04 00:33 | 33.90608 | -84.54587 | 16023 ft | 354 kts | 14° |
| 2026-05-04 00:34 | 33.92981 | -84.53714 | 16909 ft | 360 kts | 14° |
| 2026-05-04 00:34 | 33.95369 | -84.52834 | 17769 ft | 366 kts | 14° |
| 2026-05-04 00:34 | 33.97828 | -84.51928 | 18709 ft | 370 kts | 14° |
| 2026-05-04 00:34 | 34.00290 | -84.51020 | 19553 ft | 377 kts | 14° |
| 2026-05-04 00:35 | 34.02796 | -84.50095 | 20449 ft | 382 kts | 13° |
| 2026-05-04 00:35 | 34.05371 | -84.49143 | 21321 ft | 387 kts | 14° |
| 2026-05-04 00:35 | 34.07945 | -84.48192 | 22110 ft | 393 kts | 14° |
| 2026-05-04 00:35 | 34.10600 | -84.47210 | 22902 ft | 398 kts | 14° |
| 2026-05-04 00:36 | 34.13271 | -84.46220 | 23615 ft | 405 kts | 13° |
| 2026-05-04 00:36 | 34.15939 | -84.45232 | 24423 ft | 407 kts | 13° |
| 2026-05-04 00:36 | 34.18678 | -84.44217 | 25175 ft | 411 kts | 13° |
| 2026-05-04 00:36 | 34.21397 | -84.43208 | 25839 ft | 415 kts | 13° |
| 2026-05-04 00:37 | 34.24140 | -84.42189 | 26557 ft | 417 kts | 13° |
| 2026-05-04 00:37 | 34.26962 | -84.41142 | 27154 ft | 422 kts | 13° |
| 2026-05-04 00:37 | 34.29779 | -84.40128 | 27808 ft | 423 kts | 11° |
| 2026-05-04 00:37 | 34.32656 | -84.39398 | 28429 ft | 423 kts | 7° |
| 2026-05-04 00:38 | 34.35536 | -84.38716 | 28975 ft | 428 kts | 7° |
| 2026-05-04 00:38 | 34.38461 | -84.38013 | 29577 ft | 429 kts | 7° |
| 2026-05-04 00:38 | 34.41413 | -84.37305 | 30057 ft | 434 kts | 7° |
| 2026-05-04 00:38 | 34.44364 | -84.36594 | 30524 ft | 437 kts | 7° |
| 2026-05-04 00:39 | 34.47392 | -84.35864 | 31002 ft | 440 kts | 7° |
| 2026-05-04 00:39 | 34.50426 | -84.35133 | 31427 ft | 444 kts | 7° |
| 2026-05-04 00:39 | 34.53455 | -84.34400 | 31941 ft | 446 kts | 7° |
| 2026-05-04 00:39 | 34.56518 | -84.33659 | 32567 ft | 445 kts | 7° |
| 2026-05-04 00:40 | 34.59567 | -84.32922 | 33089 ft | 445 kts | 7° |
| 2026-05-04 00:40 | 34.62587 | -84.32189 | 33759 ft | 443 kts | 6° |
| 2026-05-04 00:40 | 34.65624 | -84.31454 | 34393 ft | 441 kts | 6° |
| 2026-05-04 00:40 | 34.68673 | -84.30716 | 34795 ft | 443 kts | 6° |
| 2026-05-04 00:41 | 34.71687 | -84.29984 | 35275 ft | 442 kts | 6° |
| 2026-05-04 00:41 | 34.74707 | -84.29251 | 35639 ft | 443 kts | 6° |
| 2026-05-04 00:41 | 34.77773 | -84.28506 | 36067 ft | 444 kts | 6° |
| 2026-05-04 00:41 | 34.80815 | -84.27768 | 36449 ft | 445 kts | 6° |
| 2026-05-04 00:42 | 34.83801 | -84.27039 | 37003 ft | 443 kts | 5° |
| 2026-05-04 00:42 | 34.86872 | -84.26292 | 37364 ft | 446 kts | 5° |
| 2026-05-04 00:42 | 34.89873 | -84.25562 | 37841 ft | 444 kts | 5° |
| 2026-05-04 00:42 | 34.92913 | -84.24821 | 38078 ft | 447 kts | 5° |
| 2026-05-04 00:43 | 34.95970 | -84.24075 | 38432 ft | 447 kts | 5° |
| 2026-05-04 00:43 | 34.99032 | -84.23327 | 38779 ft | 447 kts | 5° |
| 2026-05-04 00:43 | 35.02108 | -84.22575 | 39074 ft | 448 kts | 5° |
| 2026-05-04 00:43 | 35.05135 | -84.21834 | 39387 ft | 448 kts | 5° |
| 2026-05-04 00:44 | 35.08201 | -84.21084 | 39599 ft | 450 kts | 5° |
| 2026-05-04 00:44 | 35.11291 | -84.20328 | 39820 ft | 450 kts | 5° |
| 2026-05-04 00:44 | 35.14378 | -84.19570 | 40094 ft | 449 kts | 5° |
| 2026-05-04 00:44 | 35.17467 | -84.18813 | 40229 ft | 451 kts | 5° |
| 2026-05-04 00:45 | 35.20531 | -84.18059 | 40510 ft | 449 kts | 5° |
| 2026-05-04 00:45 | 35.23634 | -84.17297 | 40675 ft | 451 kts | 5° |
| 2026-05-04 00:45 | 35.26713 | -84.16541 | 40882 ft | 450 kts | 5° |
| 2026-05-04 00:45 | 35.29758 | -84.15789 | 41089 ft | 446 kts | 5° |
| 2026-05-04 00:46 | 35.32786 | -84.15042 | 41100 ft | 444 kts | 4° |
| 2026-05-04 00:46 | 35.38882 | -84.13542 | 41087 ft | 449 kts | 4° |
| 2026-05-04 00:47 | 35.45052 | -84.12019 | 41074 ft | 450 kts | 4° |
| 2026-05-04 00:47 | 35.51174 | -84.10503 | 41081 ft | 447 kts | 4° |
| 2026-05-04 00:48 | 35.57296 | -84.08987 | 41075 ft | 450 kts | 4° |
| 2026-05-04 00:48 | 35.63417 | -84.07467 | 41078 ft | 447 kts | 4° |
| 2026-05-04 00:49 | 35.69550 | -84.05944 | 41080 ft | 449 kts | 4° |
| 2026-05-04 00:49 | 35.75660 | -84.04423 | 41077 ft | 447 kts | 4° |
| 2026-05-04 00:50 | 35.81761 | -84.02902 | 41088 ft | 446 kts | 4° |
| 2026-05-04 00:50 | 35.87863 | -84.01375 | 41082 ft | 448 kts | 5° |
| 2026-05-04 00:51 | 35.93769 | -83.98603 | 41088 ft | 464 kts | 23° |
| 2026-05-04 00:51 | 35.99411 | -83.94649 | 41072 ft | 467 kts | 23° |
| 2026-05-04 00:52 | 36.05027 | -83.90667 | 41070 ft | 464 kts | 24° |
| 2026-05-04 00:52 | 36.10611 | -83.86686 | 41070 ft | 465 kts | 23° |
| 2026-05-04 00:53 | 36.16226 | -83.82671 | 41070 ft | 467 kts | 23° |
| 2026-05-04 00:53 | 36.21825 | -83.78657 | 41078 ft | 467 kts | 24° |
| 2026-05-04 00:54 | 36.27420 | -83.74638 | 41073 ft | 466 kts | 23° |
| 2026-05-04 00:54 | 36.33061 | -83.70581 | 41077 ft | 468 kts | 23° |
| 2026-05-04 00:55 | 36.38663 | -83.66544 | 41075 ft | 467 kts | 23° |
| 2026-05-04 00:55 | 36.44284 | -83.62485 | 41076 ft | 466 kts | 23° |
| 2026-05-04 00:56 | 36.49910 | -83.58419 | 41079 ft | 468 kts | 24° |
| 2026-05-04 00:56 | 36.55505 | -83.54366 | 41087 ft | 466 kts | 23° |
| 2026-05-04 00:57 | 36.61124 | -83.50290 | 41075 ft | 467 kts | 23° |
| 2026-05-04 00:57 | 36.66730 | -83.46216 | 41087 ft | 468 kts | 23° |
| 2026-05-04 00:58 | 36.72318 | -83.42149 | 41086 ft | 469 kts | 23° |
| 2026-05-04 00:58 | 36.77949 | -83.38037 | 41089 ft | 467 kts | 23° |
| 2026-05-04 00:59 | 36.83551 | -83.33929 | 41075 ft | 469 kts | 24° |
| 2026-05-04 00:59 | 36.89172 | -83.29803 | 41077 ft | 471 kts | 24° |
| 2026-05-04 01:00 | 36.94806 | -83.25656 | 41078 ft | 470 kts | 24° |
| 2026-05-04 01:00 | 37.00442 | -83.21503 | 41080 ft | 471 kts | 24° |
| 2026-05-04 01:01 | 37.06056 | -83.17358 | 41060 ft | 471 kts | 24° |
| 2026-05-04 01:01 | 37.11696 | -83.13186 | 41087 ft | 469 kts | 24° |
| 2026-05-04 01:02 | 37.17308 | -83.09027 | 41087 ft | 469 kts | 24° |
| 2026-05-04 01:02 | 37.22933 | -83.04855 | 41061 ft | 471 kts | 24° |
| 2026-05-04 01:03 | 37.28623 | -83.00884 | 41074 ft | 468 kts | 20° |
| 2026-05-04 01:03 | 37.34381 | -82.97124 | 41073 ft | 467 kts | 20° |
| 2026-05-04 01:04 | 37.40119 | -82.93359 | 41066 ft | 467 kts | 21° |
| 2026-05-04 01:04 | 37.45886 | -82.89566 | 41064 ft | 468 kts | 20° |
| 2026-05-04 01:05 | 37.51632 | -82.85777 | 41054 ft | 466 kts | 20° |
| 2026-05-04 01:05 | 37.57366 | -82.81996 | 41045 ft | 467 kts | 20° |
| 2026-05-04 01:06 | 37.63145 | -82.78180 | 41053 ft | 469 kts | 20° |
| 2026-05-04 01:06 | 37.68881 | -82.74385 | 41051 ft | 467 kts | 20° |
| 2026-05-04 01:07 | 37.74631 | -82.70574 | 41066 ft | 465 kts | 20° |
| 2026-05-04 01:07 | 37.80345 | -82.66783 | 41058 ft | 467 kts | 20° |
| 2026-05-04 01:08 | 37.86111 | -82.62949 | 41058 ft | 470 kts | 20° |
| 2026-05-04 01:08 | 37.91889 | -82.59098 | 41065 ft | 469 kts | 20° |
| 2026-05-04 01:09 | 37.97638 | -82.55260 | 41063 ft | 467 kts | 20° |
| 2026-05-04 01:09 | 38.03358 | -82.51434 | 41046 ft | 466 kts | 20° |
| 2026-05-04 01:10 | 38.09060 | -82.47612 | 41054 ft | 465 kts | 20° |
| 2026-05-04 01:10 | 38.14820 | -82.43747 | 41039 ft | 467 kts | 20° |
| 2026-05-04 01:11 | 38.20535 | -82.39902 | 41065 ft | 467 kts | 20° |
| 2026-05-04 01:11 | 38.26275 | -82.36033 | 41061 ft | 466 kts | 20° |
| 2026-05-04 01:12 | 38.32019 | -82.32156 | 41044 ft | 465 kts | 21° |
| 2026-05-04 01:12 | 38.37703 | -82.28312 | 41034 ft | 466 kts | 21° |
| 2026-05-04 01:13 | 38.43415 | -82.24442 | 41034 ft | 465 kts | 21° |
| 2026-05-04 01:13 | 38.49111 | -82.20576 | 41050 ft | 465 kts | 21° |
| 2026-05-04 01:14 | 38.54863 | -82.16664 | 41043 ft | 466 kts | 21° |
| 2026-05-04 01:14 | 38.60577 | -82.12772 | 41033 ft | 466 kts | 21° |
| 2026-05-04 01:15 | 38.66253 | -82.08897 | 41039 ft | 464 kts | 21° |
| 2026-05-04 01:15 | 38.71970 | -82.04990 | 41032 ft | 467 kts | 21° |
| 2026-05-04 01:16 | 38.77470 | -82.00636 | 41046 ft | 470 kts | 30° |
| 2026-05-04 01:16 | 38.82777 | -81.95705 | 41040 ft | 471 kts | 30° |
| 2026-05-04 01:17 | 38.88056 | -81.90762 | 41035 ft | 473 kts | 31° |
| 2026-05-04 01:17 | 38.90707 | -81.88271 | 40840 ft | 472 kts | 30° |
| 2026-05-04 01:17 | 38.93338 | -81.85786 | 40832 ft | 458 kts | 30° |
| 2026-05-04 01:17 | 38.95861 | -81.83407 | 40626 ft | 451 kts | 30° |
| 2026-05-04 01:18 | 38.98390 | -81.81023 | 40084 ft | 450 kts | 30° |
| 2026-05-04 01:18 | 39.00903 | -81.78652 | 39519 ft | 450 kts | 30° |
| 2026-05-04 01:18 | 39.03398 | -81.76292 | 39031 ft | 448 kts | 30° |
| 2026-05-04 01:18 | 39.05924 | -81.73904 | 38449 ft | 449 kts | 30° |
| 2026-05-04 01:19 | 39.08431 | -81.71528 | 38042 ft | 448 kts | 30° |
| 2026-05-04 01:19 | 39.10910 | -81.69177 | 37577 ft | 448 kts | 29° |
| 2026-05-04 01:19 | 39.13422 | -81.66793 | 37103 ft | 448 kts | 29° |
| 2026-05-04 01:19 | 39.15916 | -81.64423 | 36661 ft | 448 kts | 28° |
| 2026-05-04 01:20 | 39.18411 | -81.62052 | 36259 ft | 445 kts | 28° |
| 2026-05-04 01:20 | 39.20910 | -81.59674 | 35766 ft | 446 kts | 28° |
| 2026-05-04 01:20 | 39.23398 | -81.57306 | 35286 ft | 446 kts | 28° |
| 2026-05-04 01:20 | 39.25849 | -81.54967 | 34774 ft | 441 kts | 27° |
| 2026-05-04 01:21 | 39.28316 | -81.52616 | 34069 ft | 444 kts | 27° |
| 2026-05-04 01:21 | 39.30808 | -81.50240 | 33434 ft | 445 kts | 27° |
| 2026-05-04 01:21 | 39.33278 | -81.47879 | 32753 ft | 447 kts | 27° |
| 2026-05-04 01:21 | 39.35786 | -81.45483 | 32004 ft | 449 kts | 27° |
| 2026-05-04 01:22 | 39.38267 | -81.43105 | 31394 ft | 448 kts | 27° |
| 2026-05-04 01:22 | 39.40775 | -81.40700 | 30832 ft | 444 kts | 27° |
| 2026-05-04 01:22 | 39.43207 | -81.38364 | 30266 ft | 440 kts | 27° |
| 2026-05-04 01:22 | 39.45684 | -81.35991 | 29645 ft | 437 kts | 28° |
| 2026-05-04 01:23 | 39.48098 | -81.33674 | 29062 ft | 433 kts | 28° |
| 2026-05-04 01:23 | 39.50497 | -81.31371 | 28525 ft | 427 kts | 28° |
| 2026-05-04 01:23 | 39.52885 | -81.29078 | 27878 ft | 425 kts | 28° |
| 2026-05-04 01:23 | 39.55232 | -81.26822 | 27259 ft | 422 kts | 28° |
| 2026-05-04 01:24 | 39.57569 | -81.24573 | 26716 ft | 417 kts | 29° |
| 2026-05-04 01:24 | 39.59904 | -81.22323 | 26081 ft | 415 kts | 29° |
| 2026-05-04 01:24 | 39.62191 | -81.20117 | 25566 ft | 409 kts | 29° |
| 2026-05-04 01:24 | 39.64469 | -81.17921 | 24956 ft | 406 kts | 29° |
| 2026-05-04 01:25 | 39.66696 | -81.15769 | 24382 ft | 403 kts | 29° |
| 2026-05-04 01:25 | 39.68940 | -81.13602 | 23819 ft | 398 kts | 30° |
| 2026-05-04 01:25 | 39.71143 | -81.11471 | 23273 ft | 394 kts | 30° |
| 2026-05-04 01:25 | 39.73327 | -81.09358 | 22657 ft | 392 kts | 30° |
| 2026-05-04 01:26 | 39.75502 | -81.07251 | 22124 ft | 388 kts | 30° |
| 2026-05-04 01:26 | 39.77638 | -81.05180 | 21586 ft | 384 kts | 30° |
| 2026-05-04 01:26 | 39.79770 | -81.03111 | 21072 ft | 379 kts | 30° |
| 2026-05-04 01:26 | 39.81892 | -81.01052 | 20481 ft | 377 kts | 31° |
| 2026-05-04 01:27 | 39.83946 | -80.99052 | 19684 ft | 371 kts | 31° |
| 2026-05-04 01:27 | 39.86003 | -80.97055 | 19005 ft | 367 kts | 31° |
| 2026-05-04 01:27 | 39.88019 | -80.95092 | 18525 ft | 363 kts | 31° |
| 2026-05-04 01:27 | 39.90025 | -80.93138 | 18008 ft | 359 kts | 31° |
| 2026-05-04 01:28 | 39.92026 | -80.91188 | 17437 ft | 358 kts | 32° |
| 2026-05-04 01:28 | 39.93975 | -80.89285 | 16747 ft | 353 kts | 32° |
| 2026-05-04 01:28 | 39.95937 | -80.87373 | 15953 ft | 348 kts | 32° |
| 2026-05-04 01:28 | 39.97854 | -80.85499 | 15112 ft | 344 kts | 33° |
| 2026-05-04 01:29 | 39.99730 | -80.83665 | 14285 ft | 340 kts | 33° |
| 2026-05-04 01:29 | 40.01586 | -80.81806 | 13456 ft | 336 kts | 37° |
| 2026-05-04 01:29 | 40.03273 | -80.79732 | 12571 ft | 335 kts | 40° |
| 2026-05-04 01:29 | 40.04943 | -80.77644 | 11719 ft | 331 kts | 40° |
| 2026-05-04 01:30 | 40.06594 | -80.75577 | 10938 ft | 329 kts | 40° |
| 2026-05-04 01:30 | 40.08243 | -80.73506 | 10433 ft | 326 kts | 40° |
| 2026-05-04 01:30 | 40.09824 | -80.71513 | 10395 ft | 308 kts | 40° |
| 2026-05-04 01:30 | 40.11328 | -80.69615 | 10208 ft | 298 kts | 40° |
| 2026-05-04 01:31 | 40.12788 | -80.67771 | 10125 ft | 286 kts | 41° |
| 2026-05-04 01:31 | 40.14211 | -80.65885 | 10087 ft | 300 kts | 42° |
| 2026-05-04 01:31 | 40.15683 | -80.63910 | 10033 ft | 305 kts | 42° |
| 2026-05-04 01:31 | 40.17163 | -80.61922 | 10020 ft | 301 kts | 42° |
| 2026-05-04 01:32 | 40.18626 | -80.59956 | 10021 ft | 301 kts | 42° |
| 2026-05-04 01:32 | 40.20073 | -80.58021 | 10022 ft | 301 kts | 42° |
| 2026-05-04 01:32 | 40.21551 | -80.56044 | 10022 ft | 301 kts | 42° |
| 2026-05-04 01:32 | 40.23009 | -80.54091 | 10020 ft | 301 kts | 42° |
| 2026-05-04 01:33 | 40.24479 | -80.52122 | 10028 ft | 302 kts | 42° |
| 2026-05-04 01:33 | 40.25928 | -80.50168 | 10021 ft | 303 kts | 45° |
| 2026-05-04 01:33 | 40.27108 | -80.47855 | 10017 ft | 303 kts | 59° |
| 2026-05-04 01:33 | 40.28077 | -80.45448 | 9961 ft | 294 kts | 59° |
| 2026-05-04 01:34 | 40.29026 | -80.43106 | 9573 ft | 294 kts | 60° |
| 2026-05-04 01:34 | 40.29975 | -80.40737 | 9219 ft | 292 kts | 60° |
| 2026-05-04 01:34 | 40.30910 | -80.38393 | 8822 ft | 293 kts | 60° |
| 2026-05-04 01:34 | 40.31847 | -80.36034 | 8462 ft | 291 kts | 60° |
| 2026-05-04 01:35 | 40.32787 | -80.33664 | 8093 ft | 290 kts | 62° |
| 2026-05-04 01:35 | 40.33709 | -80.31300 | 7704 ft | 290 kts | 66° |
| 2026-05-04 01:35 | 40.34151 | -80.28757 | 7334 ft | 287 kts | 89° |
| 2026-05-04 01:35 | 40.34161 | -80.26165 | 6966 ft | 286 kts | 91° |
| 2026-05-04 01:36 | 40.34162 | -80.23565 | 6594 ft | 286 kts | 92° |
| 2026-05-04 01:36 | 40.34149 | -80.20946 | 6249 ft | 284 kts | 95° |
| 2026-05-04 01:36 | 40.33673 | -80.18491 | 5875 ft | 276 kts | 123° |
| 2026-05-04 01:36 | 40.32514 | -80.16575 | 5521 ft | 269 kts | 139° |
| 2026-05-04 01:37 | 40.31207 | -80.14842 | 5187 ft | 267 kts | 139° |
| 2026-05-04 01:37 | 40.29903 | -80.13135 | 5000 ft | 259 kts | 140° |
| 2026-05-04 01:37 | 40.28770 | -80.11372 | 4984 ft | 250 kts | 120° |
| 2026-05-04 01:37 | 40.28387 | -80.09213 | 4894 ft | 246 kts | 88° |
| 2026-05-04 01:38 | 40.28883 | -80.07096 | 4622 ft | 244 kts | 54° |
| 2026-05-04 01:38 | 40.29951 | -80.05394 | 4358 ft | 242 kts | 44° |
| 2026-05-04 01:38 | 40.31309 | -80.04167 | 4091 ft | 233 kts | 12° |
| 2026-05-04 01:38 | 40.32853 | -80.04028 | 4007 ft | 217 kts | 347° |
| 2026-05-04 01:39 | 40.34356 | -80.04333 | 4013 ft | 212 kts | 340° |
| 2026-05-04 01:39 | 40.35529 | -80.05201 | 4052 ft | 184 kts | 312° |
| 2026-05-04 01:39 | 40.36451 | -80.06303 | 4004 ft | 177 kts | 312° |
| 2026-05-04 01:39 | 40.37370 | -80.07391 | 3942 ft | 183 kts | 311° |
| 2026-05-04 01:40 | 40.38322 | -80.08539 | 3705 ft | 184 kts | 311° |
| 2026-05-04 01:40 | 40.39242 | -80.09656 | 3457 ft | 180 kts | 311° |
| 2026-05-04 01:40 | 40.40147 | -80.10765 | 3210 ft | 171 kts | 311° |
| 2026-05-04 01:40 | 40.40967 | -80.11768 | 3020 ft | 152 kts | 311° |
| 2026-05-04 01:41 | 40.41738 | -80.12725 | 2816 ft | 153 kts | 311° |
| 2026-05-04 01:41 | 40.42499 | -80.13671 | 2603 ft | 150 kts | 312° |
| 2026-05-04 01:41 | 40.43254 | -80.14607 | 2393 ft | 147 kts | 313° |
| 2026-05-04 01:41 | 40.43964 | -80.15485 | 2179 ft | 134 kts | 313° |
| 2026-05-04 01:42 | 40.44616 | -80.16293 | 1987 ft | 122 kts | 314° |
| 2026-05-04 01:42 | 40.45223 | -80.17047 | 1846 ft | 121 kts | 314° |
| 2026-05-04 01:42 | 40.45838 | -80.17809 | 1701 ft | 122 kts | 315° |
| 2026-05-04 01:42 | 40.46457 | -80.18574 | 1544 ft | 121 kts | 314° |
| 2026-05-04 01:43 | 40.47062 | -80.19325 | 1394 ft | 121 kts | 314° |
| 2026-05-04 01:43 | 40.47675 | -80.20091 | 1232 ft | 121 kts | 315° |
| 2026-05-04 01:43 | 40.48282 | -80.20837 | 1111 ft | 118 kts | 315° |
| 2026-05-04 01:43 | 40.48783 | -80.21467 | 1129 ft | 75 kts | 316° |
| 2026-05-04 01:44 | 40.49083 | -80.21838 | 1141 ft | 37 kts | 318° |
| 2026-05-04 01:44 | 40.49216 | -80.22004 | 1142 ft | 15 kts | 319° |
| 2026-05-04 01:44 | 40.49291 | -80.21980 | 1144 ft | 10 kts | 46° |
| 2026-05-04 01:44 | 40.49315 | -80.21949 | 1145 ft | 3 kts | 27° |
| 2026-05-04 01:45 | 40.49355 | -80.21957 | 1146 ft | 7 kts | 345° |
| 2026-05-04 01:45 | 40.49394 | -80.21959 | 1147 ft | 4 kts | 11° |
| 2026-05-04 01:45 | 40.49458 | -80.21879 | 1149 ft | 7 kts | 41° |
| 2026-05-04 01:46 | 40.49471 | -80.21863 | 1149 ft | 0 kts | 45° |
| 2026-05-04 01:46 | 40.49474 | -80.21858 | 1149 ft | 2 kts | 54° |
| 2026-05-04 01:46 | 40.49479 | -80.21818 | 1150 ft | 7 kts | 85° |
| 2026-05-04 01:46 | 40.49445 | -80.21716 | 1149 ft | 11 kts | 142° |
| 2026-05-04 01:47 | 40.49408 | -80.21743 | 1148 ft | 5 kts | 275° |
| 2026-05-04 01:47 | 40.49429 | -80.21780 | 1149 ft | 3 kts | 321° |
| 2026-05-04 01:47 | 40.49433 | -80.21784 | 1149 ft | 0 kts | 321° |